Time;durP1;ratioP1;P1;durP2;ratioP2;P2;SDS_P1;SDS_P2;PMS_P1;PMS_P2;Temp;Humidity;BMP_temperature;BMP_pressure;BME280_temperature;BME280_humidity;BME280_pressure;Samples;Min_cycle;Max_cycle;Signal;HPM_P1;HPM_P2
2023/12/30 00:08:20;;;;;;;11.00;6.40;;;;;;;7.12;86.45;98043.28;435513;1251;99216;-40
2023/12/30 00:18:27;;;;;;;11.80;6.70;;;;;;;7.07;86.50;98040.81;435308;1254;108486;-40
2023/12/30 00:28:34;;;;;;;9.90;6.60;;;;;;;7.04;86.27;98033.86;435370;1253;99352;-39
2023/12/30 00:38:41;;;;;;;9.10;5.90;;;;;;;7.05;86.27;98022.36;435369;1251;112116;-41
2023/12/30 00:48:46;;;;;;;15.30;8.40;;;;;;;7.04;86.42;98010.36;434881;1254;590976;-40
2023/12/30 00:59:01;;;;;;;10.90;6.70;;;;;;;6.96;86.43;98010.35;435218;1254;99221;-41
2023/12/30 01:19:13;;;;;;;9.60;5.20;;;;;;;7.00;86.31;97997.27;435277;1252;99182;-40
2023/12/30 01:29:21;;;;;;;11.70;6.10;;;;;;;6.96;86.41;97996.85;435364;1254;112095;-41
2023/12/30 01:39:28;;;;;;;8.90;6.20;;;;;;;6.88;86.34;97998.26;435363;1254;107670;-40
2023/12/30 01:49:36;;;;;;;7.40;4.80;;;;;;;6.85;86.13;97997.23;435358;1251;99218;-41
2023/12/30 01:59:45;;;;;;;9.00;5.20;;;;;;;6.88;86.14;97997.52;435279;1253;108127;-41
2023/12/30 02:09:51;;;;;;;;;;;;;;;6.88;86.25;97978.40;435428;1251;98706;-39
2023/12/30 02:19:58;;;;;;;7.50;4.10;;;;;;;6.91;86.17;97965.23;435486;1251;110402;-40
2023/12/30 02:30:07;;;;;;;5.00;3.50;;;;;;;7.03;85.98;97959.05;435266;1251;107928;-40
2023/12/30 02:50:21;;;;;;;5.20;3.90;;;;;;;7.09;86.20;97952.91;435333;1264;107167;-41
2023/12/30 03:00:28;;;;;;;5.90;3.60;;;;;;;7.14;85.82;97954.42;435266;1257;99269;-41
2023/12/30 03:10:35;;;;;;;5.20;2.90;;;;;;;7.22;86.01;97957.21;435353;1254;112200;-41
2023/12/30 03:20:42;;;;;;;7.20;4.10;;;;;;;7.27;85.89;97944.92;435304;1254;108410;-40
2023/12/30 03:30:50;;;;;;;7.30;4.80;;;;;;;7.22;85.76;97931.34;435437;1251;99335;-40
2023/12/30 03:40:58;;;;;;;5.30;4.50;;;;;;;7.23;85.74;97914.09;435305;1255;107899;-40
2023/12/30 04:01:11;;;;;;;7.00;4.90;;;;;;;7.19;85.62;97913.48;435314;1254;111448;-40
2023/12/30 04:11:18;;;;;;;8.30;4.60;;;;;;;7.11;85.47;97925.42;435442;1254;107543;-39
2023/12/30 04:21:26;;;;;;;6.10;3.60;;;;;;;7.07;85.35;97929.64;435217;1254;99252;-40
2023/12/30 04:31:33;;;;;;;8.00;4.30;;;;;;;7.06;85.46;97922.93;435243;1251;107606;-39
2023/12/30 04:41:41;;;;;;;6.30;4.60;;;;;;;7.06;85.44;97919.91;435239;1251;99173;-39
2023/12/30 04:51:47;;;;;;;7.30;4.90;;;;;;;6.97;85.48;97920.13;435424;1254;111207;-41
2023/12/30 05:01:55;;;;;;;4.90;3.60;;;;;;;6.94;85.29;97918.42;435256;1254;107547;-41
2023/12/30 05:12:02;;;;;;;4.10;3.00;;;;;;;6.97;85.37;97925.23;435262;1254;99293;-40
2023/12/30 05:22:09;;;;;;;6.50;4.30;;;;;;;7.00;85.43;97925.98;435415;1251;107638;-40
2023/12/30 05:32:16;;;;;;;2.90;2.50;;;;;;;6.90;85.24;97932.43;435393;1254;98004;-41
2023/12/30 05:42:22;;;;;;;4.00;3.10;;;;;;;6.80;85.00;97943.89;435241;1254;111801;-41
2023/12/30 05:52:28;;;;;;;5.10;3.10;;;;;;;6.74;84.98;97949.41;435191;1251;106999;-41
2023/12/30 06:02:36;;;;;;;4.40;3.70;;;;;;;6.67;85.04;97952.91;435356;1254;99227;-41
2023/12/30 06:12:43;;;;;;;4.70;3.60;;;;;;;6.55;85.16;97962.95;435154;1254;108160;-41
2023/12/30 06:22:49;;;;;;;4.80;3.50;;;;;;;6.55;84.86;97964.95;435279;1255;98021;-40
2023/12/30 06:32:56;;;;;;;5.30;3.30;;;;;;;6.55;85.07;97968.69;435351;1254;112900;-40
2023/12/30 06:43:02;;;;;;;6.30;3.90;;;;;;;6.51;85.09;97987.23;435299;1264;108307;-39
2023/12/30 06:53:10;;;;;;;5.50;3.30;;;;;;;6.48;85.12;98006.90;435217;1254;99214;-39
2023/12/30 07:03:17;;;;;;;5.60;3.60;;;;;;;6.53;85.30;98023.78;435349;1250;108286;-40
2023/12/30 07:13:25;;;;;;;7.50;6.70;;;;;;;6.57;85.55;98038.04;435367;1254;99230;-39
2023/12/30 07:23:32;;;;;;;6.30;4.70;;;;;;;6.60;85.77;98059.87;435371;1254;112287;-40
2023/12/30 07:33:38;;;;;;;4.00;2.10;;;;;;;6.64;85.95;98059.80;435497;1251;107488;-40
2023/12/30 07:43:44;;;;;;;2.90;2.00;;;;;;;6.62;86.22;98051.52;435906;1254;97979;-41
2023/12/30 07:53:50;;;;;;;4.30;3.80;;;;;;;6.56;86.32;98059.46;435285;1250;107793;-41
2023/12/30 08:03:57;;;;;;;5.90;4.40;;;;;;;6.50;86.61;98067.25;435315;1254;98853;-40
2023/12/30 08:14:04;;;;;;;10.10;5.80;;;;;;;6.65;87.27;98071.86;435163;1254;111864;-39
2023/12/30 08:34:20;;;;;;;7.00;4.10;;;;;;;9.67;87.27;98083.59;435242;1250;99221;-38
2023/12/30 08:44:28;;;;;;;6.50;3.00;;;;;;;8.66;84.84;98110.31;435476;1254;107895;-39
2023/12/30 08:54:34;;;;;;;4.40;2.60;;;;;;;8.10;84.82;98130.70;435220;1254;98005;-40
2023/12/30 09:04:41;;;;;;;7.30;2.60;;;;;;;7.94;84.62;98163.24;435280;1250;112192;-41
2023/12/30 09:14:47;;;;;;;2.60;1.80;;;;;;;7.23;85.12;98222.98;435113;1254;108137;-38
2023/12/30 09:45:13;;;;;;;15.10;7.60;;;;;;;6.16;86.50;98238.19;435402;1250;97981;-40
2023/12/30 09:55:20;;;;;;;3.90;2.00;;;;;;;6.06;86.87;98237.39;435315;1254;112250;-40
2023/12/30 10:05:26;;;;;;;2.70;2.00;;;;;;;6.25;86.92;98256.71;435256;1254;108186;-40
2023/12/30 10:15:33;;;;;;;5.70;3.60;;;;;;;6.43;87.13;98248.65;435259;1255;99460;-42
2023/12/30 10:35:48;;;;;;;3.50;1.60;;;;;;;6.86;86.25;98232.61;435287;1250;99848;-40
2023/12/30 10:45:54;;;;;;;7.00;3.20;;;;;;;7.01;86.17;98235.86;435230;1254;113491;-39
2023/12/30 11:16:15;;;;;;;2.00;1.20;;;;;;;7.04;85.58;98254.40;435143;1250;108838;-40
2023/12/30 11:26:27;;;;;;;3.80;2.50;;;;;;;7.10;85.53;98260.74;435253;1251;99200;-40
2023/12/30 11:46:43;;;;;;;7.30;3.90;;;;;;;7.16;85.08;98265.52;435281;1254;108044;-40
2023/12/30 11:56:49;;;;;;;;;;;;;;;7.27;85.17;98268.14;435295;1254;99233;-39
2023/12/30 12:06:56;;;;;;;4.70;2.20;;;;;;;7.31;85.12;98271.38;435361;1250;107789;-40
2023/12/30 12:17:04;;;;;;;24.40;8.90;;;;;;;7.60;85.10;98267.40;435245;1254;99467;-39
2023/12/30 12:27:10;;;;;;;11.30;4.30;;;;;;;7.78;84.85;98263.30;435149;1255;112787;-40
2023/12/30 12:47:20;;;;;;;15.00;7.00;;;;;;;7.32;84.73;98283.15;435220;1254;98029;-39
2023/12/30 12:57:26;;;;;;;9.20;4.40;;;;;;;7.13;84.50;98286.09;434771;1250;515210;-38
2023/12/30 13:07:48;;;;;;;9.10;5.30;;;;;;;7.04;84.62;98295.00;435310;1254;99240;-40
2023/12/30 13:17:55;;;;;;;13.00;7.60;;;;;;;6.83;84.86;98305.56;435275;1251;111297;-40
2023/12/30 13:38:12;;;;;;;10.90;6.10;;;;;;;6.41;85.21;98308.75;435300;1254;99106;-40
2023/12/30 14:08:50;;;;;;;16.10;11.50;;;;;;;6.26;86.06;98318.02;435274;1254;110222;-42
2023/12/30 14:18:55;;;;;;;10.60;6.70;;;;;;;6.10;86.14;98326.89;435294;1256;107215;-40
2023/12/30 14:29:03;;;;;;;14.50;10.40;;;;;;;5.98;86.36;98337.41;435243;1254;99231;-40
2023/12/30 14:49:15;;;;;;;7.70;4.90;;;;;;;5.76;86.97;98339.79;435284;1250;99343;-40
2023/12/30 14:59:25;;;;;;;56.90;30.30;;;;;;;5.72;87.40;98345.16;435479;1256;111168;-39
2023/12/30 15:09:31;;;;;;;;;;;;;;;5.56;87.48;98334.00;435371;1256;107951;-39
2023/12/30 15:19:38;;;;;;;64.30;31.80;;;;;;;5.36;87.85;98348.54;435434;1250;99243;-39
2023/12/30 15:29:46;;;;;;;37.00;20.40;;;;;;;5.35;87.90;98355.89;435375;1255;109409;-39
2023/12/30 15:50:01;;;;;;;30.00;15.40;;;;;;;5.53;88.31;98366.21;435380;1256;111689;-39
2023/12/30 16:00:10;;;;;;;43.20;23.00;;;;;;;5.57;88.45;98367.21;435285;1250;106342;-40
2023/12/30 16:10:16;;;;;;;75.00;34.70;;;;;;;5.56;88.71;98380.36;435358;1250;99241;-39
2023/12/30 16:20:23;;;;;;;54.80;30.80;;;;;;;5.50;88.97;98400.80;435383;1256;107993;-40
2023/12/30 16:30:30;;;;;;;22.90;13.30;;;;;;;5.55;88.96;98411.48;435324;1251;99345;-40
2023/12/30 16:50:44;;;;;;;10.10;5.20;;;;;;;5.74;88.82;98430.52;435390;1256;108734;-40
2023/12/30 17:00:52;;;;;;;12.80;7.00;;;;;;;5.61;88.44;98426.39;435300;1256;99889;-38
2023/12/30 17:10:59;;;;;;;13.90;6.00;;;;;;;5.51;88.10;98426.45;435345;1256;108527;-39
2023/12/30 17:21:05;;;;;;;16.50;8.00;;;;;;;5.42;88.00;98432.86;435396;1256;98810;-39
2023/12/30 17:31:13;;;;;;;25.60;10.40;;;;;;;5.28;88.06;98436.77;435356;1256;111307;-39
2023/12/30 17:41:19;;;;;;;27.30;11.60;;;;;;;5.18;87.64;98423.31;435200;1251;107720;-41
2023/12/30 18:11:36;;;;;;;23.60;11.60;;;;;;;4.76;87.57;98455.06;435368;1256;98011;-40
2023/12/30 18:21:43;;;;;;;19.00;10.30;;;;;;;4.56;87.62;98469.26;435309;1250;110289;-40
2023/12/30 18:41:57;;;;;;;22.30;12.80;;;;;;;4.16;87.31;98474.84;435212;1256;97970;-40
2023/12/30 18:52:05;;;;;;;36.80;14.70;;;;;;;4.12;87.84;98482.55;435400;1256;110966;-39
2023/12/30 19:12:17;;;;;;;45.10;21.00;;;;;;;3.94;88.05;98480.29;435420;1255;99339;-39
2023/12/30 19:22:23;;;;;;;38.00;18.80;;;;;;;3.93;88.14;98484.67;435298;1255;110974;-40
2023/12/30 20:22:59;;;;;;;30.80;16.40;;;;;;;4.09;88.75;98518.11;435265;1251;108819;-39
2023/12/30 20:33:05;;;;;;;41.70;21.00;;;;;;;4.02;88.71;98517.45;435194;1251;98354;-39
2023/12/30 20:53:16;;;;;;;26.20;15.20;;;;;;;3.84;88.96;98509.08;435318;1250;99332;-41
2023/12/30 21:03:23;;;;;;;38.60;20.50;;;;;;;3.80;89.27;98519.11;435191;1255;111942;-40
2023/12/30 21:13:30;;;;;;;56.50;31.40;;;;;;;3.65;89.51;98534.05;435379;1263;108362;-39
2023/12/30 21:23:36;;;;;;;33.70;20.20;;;;;;;3.52;89.36;98547.80;435345;1251;98321;-39
2023/12/30 21:33:43;;;;;;;27.10;18.00;;;;;;;3.41;89.25;98557.03;435305;1257;108173;-39
2023/12/30 21:43:51;;;;;;;31.10;18.10;;;;;;;3.39;89.54;98559.18;435350;1255;99227;-40
2023/12/30 21:53:59;;;;;;;49.70;27.10;;;;;;;3.29;89.60;98551.84;435341;1255;111803;-40
2023/12/30 22:04:07;;;;;;;44.40;21.70;;;;;;;3.09;89.72;98549.36;435218;1263;109397;-40
2023/12/30 22:24:20;;;;;;;29.10;17.80;;;;;;;2.87;89.82;98558.31;435270;1256;108926;-40
2023/12/30 22:44:34;;;;;;;36.70;20.60;;;;;;;2.89;89.99;98555.64;435152;1254;111202;-40
2023/12/30 22:54:43;;;;;;;33.30;16.30;;;;;;;2.87;89.88;98555.86;435279;1251;108221;-39
2023/12/30 23:04:49;;;;;;;40.20;21.30;;;;;;;2.79;90.20;98561.20;435374;1254;99162;-42
2023/12/30 23:25:01;;;;;;;49.90;24.00;;;;;;;2.66;90.38;98557.27;435343;1251;99242;-40
2023/12/30 23:35:08;;;;;;;36.00;22.70;;;;;;;2.65;90.50;98559.84;435375;1256;111732;-40
2023/12/30 23:45:15;;;;;;;29.50;19.70;;;;;;;2.70;90.68;98537.33;435105;1251;106643;-40
2023/12/30 23:55:21;;;;;;;51.30;25.50;;;;;;;2.69;90.95;98528.88;435321;1251;99227;-40
